48ème Rallye National de la Giraglia
Championnat de France des Rallyes 2ème Division
1 1 TROJANI Pascal/VESPERINI Jean-Noel Citroën Ds3 A 8W 48:18,2
2 2 NAVARRA Francois-Frederic/TYRAN Mathieu Ford Fiesta A 8W 48:37,3 +00:19,1 +00:19,1
3 3 ALERINI Paul/VERDURI Olivier Ford Fiesta A 8W 49:04,1 +00:45,9 +00:26,8
4 7 MANZAGOL Jean-Marc/PATRONE Etienne Ford Fiesta R 5 49:12,2 +00:54,0 +00:08,1
5 6 LEANDRI Jean-Mathieu/GORGUILO Anthony Skoda Fabia R 5 49:15,1 +00:56,9 +00:02,9
6 60 FRAYMOUTH François/FELICELLI Romain Peugeot 208 R 2 52:30,2 +04:12,0 +03:15,1
7 5 SIMONETTI Robert/SIMONETTI Celia Citroën Ds3 A 8W 52:53,9 +04:35,7 +00:23,7
8 32 FLORI Jean-Pierre/GARCIA Dann Renault Clio Ragnotti F2 14 53:12,3 +04:54,1 +00:18,4
9 36 JAUMON Lionel/ROQUE Cyril Renault Clio 3 Rs F2 14 53:12,8 +04:54,6 +00:00,5
10 61 MICHELI Hugo/RAFFAELLI Yoann Peugeot 208 R 2 53:43,2 +05:25,0 +00:30,4
11 19 DEFENDINI Romain/GHERARDI Gérard Citroën Ds3 R 3 53:51,0 +05:32,8 +00:07,8
12 77 GANDOLFI Anthony/FINOCCHIARO Sébastien Citroën Saxo F2 13 54:01,4 +05:43,2 +00:10,4
13 24 VILLARET Benjamin/OBRECHT Justine Renault Clio R3 R 3 54:02,6 +05:44,4 +00:01,2
14 10 VILLORESI Christian/GIUDICELLI Cyril Skoda Fabia R 5 54:09,9 +05:51,7 +00:07,3
15 9 POLIDORI Frédéric/GOIA Laurent Ford Fiesta R 5 54:14,0 +05:55,8 +00:04,1
16 27 ROSSI Yannick/VOLPEI Baptiste Mitsubishi Evolution 9 N 4 54:52,4 +06:34,2 +00:38,4
17 21 CHIARONI Pascal/SANTINI Cédric Renault Clio R3 Max R 3 55:01,0 +06:42,8 +00:08,6
18 33 CAVILLAC Franck/CORSI Frédéric Renault Clio Rs F2 14 55:01,5 +06:43,3 +00:00,5
19 38 RICO Michel/RICO Benjamin BMW --- F2 14 55:09,8 +06:51,6 +00:08,3
20 63 AGOSTINI Lucien/AGOSTINI Guillaume Peugeot 208 R 2B 55:11,0 +06:52,8 +00:01,2
21 73 ARAGNEAU Philippe/MAZOTTI Francis Renault Clio FN 3 55:35,7 +07:17,5 +00:24,7
22 64 MAESTRACCI François/CASANOVA Sébastien Peugeot 208 R 2 55:53,5 +07:35,3 +00:17,8
23 16 BONEL Antony/MANENT Roselyne Opel Speedster Turbo GT 10 55:55,1 +07:36,9 +00:01,6
24 54 COMOLE Lionel/DINI Gilbert Peugeot 106 S16 A 6K 56:03,6 +07:45,4 +00:08,5
25 15 ROGNONI Daniel/BEAULIEU Noelise Porsche 911 GT 10 56:06,0 +07:47,8 +00:02,4
26 31 GREGORY Ugo/GREGORY Coralie Renault Clio Rs F2 14 56:08,7 +07:50,5 +00:02,7
27 85 PERETTI Myriam/SALINI Laura Peugeot 106 FA 6 56:13,4 +07:55,2 +00:04,7
28 57 BRAZ Paulo/SCICOLONE Edouard Citroën C2 FA 6K 56:20,8 +08:02,6 +00:07,4
29 79 FRANCISCI Yannick/VINCIGUERRA Lisa-Marie Peugeot 106 S16 F2 13 56:21,4 +08:03,2 +00:00,6
30 34 VANGIONI Francesco/THIERS Julien Renault Clio 3 Rs F2 14 56:28,7 +08:10,5 +00:07,3
31 80 DIFEO José/DIFEO Julien Citroën C2 F2 13 56:38,4 +08:20,2 +00:09,7
32 66 ANFRIANI Paul-Etienne/RICOVERI Mallaury Citroën C2 R 2B 56:42,4 +08:24,2 +00:04,0
33 51 MARIANI Anthony/PIEVE Laura Peugeot 206 Xs FA 6K 56:42,7 +08:24,5 +00:00,3
34 53 GHELARDINI Francois-Marie/ROCCA SERRA Laury Peugeot 206 Xs FA 6K 56:46,0 +08:27,8 +00:03,3
35 26 BORT Julien/ZAVARSKY Alexy Renault Clio R3 Max R 3 56:49,0 +08:30,8 +00:03,0
36 81 CLAUDE Christophe/DELATTRE Judicael Citroën C2 F2 13 57:19,9 +09:01,7 +00:30,9
37 4 MICHELI Joseph/MICHELI Luna-Stella Ford Fiesta A 8W 57:34,3 +09:16,1 +00:14,4
38 22 ETTORI Jean-Dominique/GUERRIERI Patrick Citroën Ds3 R 3 57:49,1 +09:30,9 +00:14,8
39 49 FIGARI Luca/FIGARI Morgan Renault Clio Super 1600 FA 6K 57:51,9 +09:33,7 +00:02,8
40 55 MARTELLI Cyril/BRUN Pierre-Marie Peugeot 206 Xs FA 6K 57:55,2 +09:37,0 +00:03,3
41 17 ALEGRE Francis/MURATI Laura BMW 325I FA 8 58:00,0 +09:41,8 +00:04,8
42 23 AGOSTINI Quentin/BARRAL Florian Peugeot 207 Rc R 3 58:02,0 +09:43,8 +00:02,0
43 89 NAPOLI MELIO Michaël/BERNARDI Dominique Citroën C2 FA 6 58:24,6 +10:06,4 +00:22,6
44 70 FABRA Jérémy/PONTIER Numa Renault Clio 16S FA 7 58:28,4 +10:10,2 +00:03,8
45 98 NEGRI Jean-Michel/NEGRI Michel Peugeot 106 S16 FN 2 59:01,9 +10:43,7 +00:33,5
46 50 FERRARI Cédric/LAPINA Michela Peugeot 106 S16 FA 6K 59:06,2 +10:48,0 +00:04,3
47 67 DE MEYER Jean-Michel/FRATTI Eric Peugeot 208 R 2 59:09,9 +10:51,7 +00:03,7
48 30 LAUZERTE Alain/BARBE Isabelle Renault Megane N 4 59:31,5 +11:13,3 +00:21,6
49 93 MARIINI Michaël/REAL Thibaut Citroën Saxo Vts FN 2 59:44,1 +11:25,9 +00:12,6
50 95 BERNOUS Bouchta/MARTINI Andrea Citroën Saxo Vts FN 2 59:46,9 +11:28,7 +00:02,8
51 105 NICOLI Gérard/GALTIERI Marie-Flore Citroën Ax Sport FN 1 1:01:11,0 +12:52,8 +01:24,1
52 45 VANGIONI Graziano/BERTIN-MAURICE Kévin Renault Clio Rs F2 14 1:01:24,6 +13:06,4 +00:13,6
53 56 BALESTRACCI Stéphanie/CHIAPPE Patrick Peugeot 206 Xs FA 6K 1:01:30,3 +13:12,1 +00:05,7
54 29 LIMELETTE Marc/PONSOT Francois-Dominique Ford Escort Cosworth FN 4 1:01:38,5 +13:20,3 +00:08,2
55 28 AGOSTINI Anthony/ROYER Jérôme Renault Megane N 4 1:01:38,6 +13:20,4 +00:00,1
56 104 BIAGGI Florian/ESCACH Matthieu Peugeot 106 S16 N 2S 1:04:02,0 +15:43,8 +02:23,4
57 44 MORGANTI Antoine/BIAGGI Yves Peugeot 205 Gti F2 14 1:05:27,0 +17:08,8 +01:25,0
58 102 TROMBI Philippe/NICOLAI Michaël Peugeot 106 Xsi F2 12 1:05:37,4 +17:19,2 +00:10,4
59 97 BORSELLI Charles/MANZONI Cédric Peugeot 106 FN 2 1:06:57,5 +18:39,3 +01:20,1
Clt Equipage Voiture Gr/Cl Temps Ecart 1er Ecart préc. Catégories
Commentaires: © PatricK Soft  
(Temps forfaitaires=couleur bleue)
Classés:59

Epreuve: Groupe: Catégorie:

 
Retour
Classement après ES6-Morsiglia - Cagnano 2 (23.000 km)